sensor_id;sensor_type;location;lat;lon;timestamp;P1;durP1;ratioP1;P2;durP2;ratioP2
15665;SDS011;20725;51.196;3.510;2024-01-07T00:01:08;12.17;;;9.33;;
15665;SDS011;20725;51.196;3.510;2024-01-07T00:03:36;11.03;;;8.90;;
15665;SDS011;20725;51.196;3.510;2024-01-07T00:06:05;12.87;;;9.30;;
15665;SDS011;20725;51.196;3.510;2024-01-07T00:08:32;8.87;;;8.10;;
15665;SDS011;20725;51.196;3.510;2024-01-07T00:11:00;10.30;;;9.30;;
15665;SDS011;20725;51.196;3.510;2024-01-07T00:13:27;10.83;;;9.73;;
15665;SDS011;20725;51.196;3.510;2024-01-07T00:15:54;13.50;;;9.63;;
15665;SDS011;20725;51.196;3.510;2024-01-07T00:18:22;14.77;;;9.50;;
15665;SDS011;20725;51.196;3.510;2024-01-07T00:20:49;12.03;;;9.90;;
15665;SDS011;20725;51.196;3.510;2024-01-07T00:23:18;9.77;;;8.77;;
15665;SDS011;20725;51.196;3.510;2024-01-07T00:25:46;10.60;;;9.37;;
15665;SDS011;20725;51.196;3.510;2024-01-07T00:28:13;10.90;;;9.77;;
15665;SDS011;20725;51.196;3.510;2024-01-07T00:30:41;9.87;;;8.87;;
15665;SDS011;20725;51.196;3.510;2024-01-07T00:33:08;13.13;;;8.53;;
15665;SDS011;20725;51.196;3.510;2024-01-07T00:35:35;12.30;;;8.97;;
15665;SDS011;20725;51.196;3.510;2024-01-07T00:38:03;14.93;;;9.20;;
15665;SDS011;20725;51.196;3.510;2024-01-07T00:40:31;10.60;;;9.20;;
15665;SDS011;20725;51.196;3.510;2024-01-07T00:42:59;12.67;;;9.50;;
15665;SDS011;20725;51.196;3.510;2024-01-07T00:45:26;12.10;;;9.70;;
15665;SDS011;20725;51.196;3.510;2024-01-07T00:47:53;12.23;;;9.47;;
15665;SDS011;20725;51.196;3.510;2024-01-07T00:50:21;11.27;;;9.80;;
15665;SDS011;20725;51.196;3.510;2024-01-07T00:52:48;13.80;;;9.37;;
15665;SDS011;20725;51.196;3.510;2024-01-07T00:55:16;12.07;;;8.67;;
15665;SDS011;20725;51.196;3.510;2024-01-07T00:57:45;10.50;;;9.40;;
15665;SDS011;20725;51.196;3.510;2024-01-07T01:00:13;9.70;;;8.67;;
15665;SDS011;20725;51.196;3.510;2024-01-07T01:02:40;12.70;;;8.67;;
15665;SDS011;20725;51.196;3.510;2024-01-07T01:05:08;15.53;;;8.33;;
15665;SDS011;20725;51.196;3.510;2024-01-07T01:07:35;8.37;;;7.47;;
15665;SDS011;20725;51.196;3.510;2024-01-07T01:10:02;10.93;;;7.80;;
15665;SDS011;20725;51.196;3.510;2024-01-07T01:12:30;12.93;;;7.87;;
15665;SDS011;20725;51.196;3.510;2024-01-07T01:14:59;7.33;;;6.60;;
15665;SDS011;20725;51.196;3.510;2024-01-07T01:17:26;6.83;;;6.10;;
15665;SDS011;20725;51.196;3.510;2024-01-07T01:19:53;8.93;;;6.23;;
15665;SDS011;20725;51.196;3.510;2024-01-07T01:22:21;7.10;;;6.50;;
15665;SDS011;20725;51.196;3.510;2024-01-07T01:24:48;6.73;;;6.07;;
15665;SDS011;20725;51.196;3.510;2024-01-07T01:27:16;7.87;;;7.07;;
15665;SDS011;20725;51.196;3.510;2024-01-07T01:29:43;13.63;;;7.43;;
15665;SDS011;20725;51.196;3.510;2024-01-07T01:32:12;9.03;;;7.23;;
15665;SDS011;20725;51.196;3.510;2024-01-07T01:34:40;10.53;;;7.73;;
15665;SDS011;20725;51.196;3.510;2024-01-07T01:37:08;9.57;;;7.73;;
15665;SDS011;20725;51.196;3.510;2024-01-07T01:39:35;7.77;;;7.07;;
15665;SDS011;20725;51.196;3.510;2024-01-07T01:42:03;12.10;;;8.30;;
15665;SDS011;20725;51.196;3.510;2024-01-07T01:44:30;13.00;;;8.00;;
15665;SDS011;20725;51.196;3.510;2024-01-07T01:46:57;11.07;;;9.60;;
15665;SDS011;20725;51.196;3.510;2024-01-07T01:49:26;10.37;;;9.13;;
15665;SDS011;20725;51.196;3.510;2024-01-07T01:51:54;11.77;;;9.27;;
15665;SDS011;20725;51.196;3.510;2024-01-07T01:54:21;13.07;;;8.30;;
15665;SDS011;20725;51.196;3.510;2024-01-07T01:56:49;11.90;;;8.53;;
15665;SDS011;20725;51.196;3.510;2024-01-07T01:59:17;11.53;;;9.13;;
15665;SDS011;20725;51.196;3.510;2024-01-07T02:01:44;14.33;;;9.70;;
15665;SDS011;20725;51.196;3.510;2024-01-07T02:04:11;12.67;;;9.73;;
15665;SDS011;20725;51.196;3.510;2024-01-07T02:06:40;13.73;;;9.07;;
15665;SDS011;20725;51.196;3.510;2024-01-07T02:09:07;12.07;;;9.63;;
15665;SDS011;20725;51.196;3.510;2024-01-07T02:11:35;15.37;;;10.47;;
15665;SDS011;20725;51.196;3.510;2024-01-07T02:14:02;12.87;;;9.27;;
15665;SDS011;20725;51.196;3.510;2024-01-07T02:16:29;9.57;;;8.50;;
15665;SDS011;20725;51.196;3.510;2024-01-07T02:18:57;9.90;;;9.00;;
15665;SDS011;20725;51.196;3.510;2024-01-07T02:21:24;11.67;;;9.30;;
15665;SDS011;20725;51.196;3.510;2024-01-07T02:23:53;10.00;;;8.97;;
15665;SDS011;20725;51.196;3.510;2024-01-07T02:26:22;10.63;;;9.30;;
15665;SDS011;20725;51.196;3.510;2024-01-07T02:28:49;10.53;;;9.07;;
15665;SDS011;20725;51.196;3.510;2024-01-07T02:31:16;12.17;;;9.63;;
15665;SDS011;20725;51.196;3.510;2024-01-07T02:33:43;11.93;;;9.27;;
15665;SDS011;20725;51.196;3.510;2024-01-07T02:36:11;10.40;;;9.47;;
15665;SDS011;20725;51.196;3.510;2024-01-07T02:38:38;10.80;;;9.87;;
15665;SDS011;20725;51.196;3.510;2024-01-07T02:41:05;11.60;;;10.40;;
15665;SDS011;20725;51.196;3.510;2024-01-07T02:43:34;10.90;;;9.90;;
15665;SDS011;20725;51.196;3.510;2024-01-07T02:46:02;12.13;;;10.93;;
15665;SDS011;20725;51.196;3.510;2024-01-07T02:48:29;12.63;;;10.57;;
15665;SDS011;20725;51.196;3.510;2024-01-07T02:50:56;13.63;;;11.33;;
15665;SDS011;20725;51.196;3.510;2024-01-07T02:53:23;12.27;;;11.07;;
15665;SDS011;20725;51.196;3.510;2024-01-07T02:55:51;11.67;;;10.47;;
15665;SDS011;20725;51.196;3.510;2024-01-07T02:58:18;11.00;;;9.90;;
15665;SDS011;20725;51.196;3.510;2024-01-07T03:00:47;12.13;;;11.13;;
15665;SDS011;20725;51.196;3.510;2024-01-07T03:03:14;11.87;;;10.77;;
15665;SDS011;20725;51.196;3.510;2024-01-07T03:05:41;12.70;;;11.43;;
15665;SDS011;20725;51.196;3.510;2024-01-07T03:08:09;13.43;;;12.13;;
15665;SDS011;20725;51.196;3.510;2024-01-07T03:10:36;13.30;;;11.87;;
15665;SDS011;20725;51.196;3.510;2024-01-07T03:13:03;13.70;;;12.33;;
15665;SDS011;20725;51.196;3.510;2024-01-07T03:15:31;13.47;;;12.07;;
15665;SDS011;20725;51.196;3.510;2024-01-07T03:18:00;14.50;;;12.80;;
15665;SDS011;20725;51.196;3.510;2024-01-07T03:20:27;13.67;;;12.40;;
15665;SDS011;20725;51.196;3.510;2024-01-07T03:22:54;14.63;;;13.23;;
15665;SDS011;20725;51.196;3.510;2024-01-07T03:25:21;13.53;;;12.23;;
15665;SDS011;20725;51.196;3.510;2024-01-07T03:27:49;14.80;;;13.20;;
15665;SDS011;20725;51.196;3.510;2024-01-07T03:30:16;14.73;;;13.27;;
15665;SDS011;20725;51.196;3.510;2024-01-07T03:32:43;14.57;;;13.07;;
15665;SDS011;20725;51.196;3.510;2024-01-07T03:35:12;14.97;;;12.77;;
15665;SDS011;20725;51.196;3.510;2024-01-07T03:37:39;15.67;;;13.60;;
15665;SDS011;20725;51.196;3.510;2024-01-07T03:40:09;13.37;;;12.17;;
15665;SDS011;20725;51.196;3.510;2024-01-07T03:42:37;13.90;;;12.40;;
15665;SDS011;20725;51.196;3.510;2024-01-07T03:45:04;13.50;;;12.10;;
15665;SDS011;20725;51.196;3.510;2024-01-07T03:47:32;14.10;;;12.70;;
15665;SDS011;20725;51.196;3.510;2024-01-07T03:49:59;15.30;;;13.70;;
15665;SDS011;20725;51.196;3.510;2024-01-07T03:52:28;14.47;;;13.00;;
15665;SDS011;20725;51.196;3.510;2024-01-07T03:54:56;14.40;;;13.00;;
15665;SDS011;20725;51.196;3.510;2024-01-07T03:57:23;15.50;;;13.87;;
15665;SDS011;20725;51.196;3.510;2024-01-07T03:59:50;15.60;;;14.03;;
15665;SDS011;20725;51.196;3.510;2024-01-07T04:02:17;15.90;;;14.30;;
15665;SDS011;20725;51.196;3.510;2024-01-07T04:04:45;15.83;;;13.63;;
15665;SDS011;20725;51.196;3.510;2024-01-07T04:07:12;14.47;;;13.13;;
15665;SDS011;20725;51.196;3.510;2024-01-07T04:09:42;15.43;;;13.83;;
15665;SDS011;20725;51.196;3.510;2024-01-07T04:12:10;15.47;;;13.87;;
15665;SDS011;20725;51.196;3.510;2024-01-07T04:14:37;14.43;;;13.10;;
15665;SDS011;20725;51.196;3.510;2024-01-07T04:17:04;15.40;;;13.90;;
15665;SDS011;20725;51.196;3.510;2024-01-07T04:19:33;15.23;;;13.70;;
15665;SDS011;20725;51.196;3.510;2024-01-07T04:22:00;15.80;;;14.20;;
15665;SDS011;20725;51.196;3.510;2024-01-07T04:24:28;17.40;;;15.77;;
15665;SDS011;20725;51.196;3.510;2024-01-07T04:26:56;16.73;;;15.13;;
15665;SDS011;20725;51.196;3.510;2024-01-07T04:29:24;19.43;;;17.43;;
15665;SDS011;20725;51.196;3.510;2024-01-07T04:31:51;19.70;;;17.50;;
15665;SDS011;20725;51.196;3.510;2024-01-07T04:34:18;20.13;;;17.87;;
15665;SDS011;20725;51.196;3.510;2024-01-07T04:36:46;21.77;;;19.40;;
15665;SDS011;20725;51.196;3.510;2024-01-07T04:39:13;22.40;;;19.67;;
15665;SDS011;20725;51.196;3.510;2024-01-07T04:41:40;22.70;;;20.40;;
15665;SDS011;20725;51.196;3.510;2024-01-07T04:44:09;23.20;;;20.70;;
15665;SDS011;20725;51.196;3.510;2024-01-07T04:46:37;23.43;;;20.93;;
15665;SDS011;20725;51.196;3.510;2024-01-07T04:49:05;24.13;;;21.50;;
15665;SDS011;20725;51.196;3.510;2024-01-07T04:51:33;24.43;;;21.10;;
15665;SDS011;20725;51.196;3.510;2024-01-07T04:54:01;23.53;;;20.87;;
15665;SDS011;20725;51.196;3.510;2024-01-07T04:56:28;23.53;;;20.87;;
15665;SDS011;20725;51.196;3.510;2024-01-07T04:58:56;23.40;;;20.73;;
15665;SDS011;20725;51.196;3.510;2024-01-07T05:01:24;23.93;;;21.37;;
15665;SDS011;20725;51.196;3.510;2024-01-07T05:03:52;24.07;;;21.47;;
15665;SDS011;20725;51.196;3.510;2024-01-07T05:06:19;25.17;;;21.03;;
15665;SDS011;20725;51.196;3.510;2024-01-07T05:08:46;24.30;;;21.53;;
15665;SDS011;20725;51.196;3.510;2024-01-07T05:11:14;24.33;;;21.20;;
15665;SDS011;20725;51.196;3.510;2024-01-07T05:13:42;24.13;;;21.63;;
15665;SDS011;20725;51.196;3.510;2024-01-07T05:16:09;24.60;;;20.47;;
15665;SDS011;20725;51.196;3.510;2024-01-07T05:18:46;24.30;;;21.80;;
15665;SDS011;20725;51.196;3.510;2024-01-07T05:21:14;25.87;;;22.00;;
15665;SDS011;20725;51.196;3.510;2024-01-07T05:23:41;25.47;;;22.43;;
15665;SDS011;20725;51.196;3.510;2024-01-07T05:26:08;24.57;;;21.77;;
15665;SDS011;20725;51.196;3.510;2024-01-07T05:28:36;26.43;;;23.03;;
15665;SDS011;20725;51.196;3.510;2024-01-07T05:31:03;27.77;;;23.40;;
15665;SDS011;20725;51.196;3.510;2024-01-07T05:33:31;26.43;;;22.33;;
15665;SDS011;20725;51.196;3.510;2024-01-07T05:36:00;26.70;;;23.33;;
15665;SDS011;20725;51.196;3.510;2024-01-07T05:38:27;25.57;;;22.80;;
15665;SDS011;20725;51.196;3.510;2024-01-07T05:40:54;25.13;;;22.43;;
15665;SDS011;20725;51.196;3.510;2024-01-07T05:43:21;26.53;;;23.03;;
15665;SDS011;20725;51.196;3.510;2024-01-07T05:45:49;27.73;;;24.00;;
15665;SDS011;20725;51.196;3.510;2024-01-07T05:48:16;27.27;;;23.47;;
15665;SDS011;20725;51.196;3.510;2024-01-07T05:50:43;28.43;;;24.70;;
15665;SDS011;20725;51.196;3.510;2024-01-07T05:53:12;27.80;;;23.90;;
15665;SDS011;20725;51.196;3.510;2024-01-07T05:55:39;27.73;;;24.10;;
15665;SDS011;20725;51.196;3.510;2024-01-07T05:58:07;30.23;;;25.30;;
15665;SDS011;20725;51.196;3.510;2024-01-07T06:00:34;30.73;;;25.10;;
15665;SDS011;20725;51.196;3.510;2024-01-07T06:03:01;27.13;;;22.87;;
15665;SDS011;20725;51.196;3.510;2024-01-07T06:05:29;28.70;;;24.63;;
15665;SDS011;20725;51.196;3.510;2024-01-07T06:07:56;28.70;;;22.47;;
15665;SDS011;20725;51.196;3.510;2024-01-07T06:10:25;28.00;;;22.57;;
15665;SDS011;20725;51.196;3.510;2024-01-07T06:12:52;26.90;;;22.47;;
15665;SDS011;20725;51.196;3.510;2024-01-07T06:15:19;25.47;;;21.20;;
15665;SDS011;20725;51.196;3.510;2024-01-07T06:17:47;24.80;;;21.43;;
15665;SDS011;20725;51.196;3.510;2024-01-07T06:20:14;25.37;;;22.10;;
15665;SDS011;20725;51.196;3.510;2024-01-07T06:22:42;26.73;;;21.67;;
15665;SDS011;20725;51.196;3.510;2024-01-07T06:25:09;24.80;;;21.70;;
15665;SDS011;20725;51.196;3.510;2024-01-07T06:27:38;26.30;;;22.10;;
15665;SDS011;20725;51.196;3.510;2024-01-07T06:30:06;26.83;;;21.37;;
15665;SDS011;20725;51.196;3.510;2024-01-07T06:32:34;26.40;;;22.90;;
15665;SDS011;20725;51.196;3.510;2024-01-07T06:35:01;30.03;;;24.23;;
15665;SDS011;20725;51.196;3.510;2024-01-07T06:37:29;27.17;;;22.40;;
15665;SDS011;20725;51.196;3.510;2024-01-07T06:39:57;25.77;;;22.13;;
15665;SDS011;20725;51.196;3.510;2024-01-07T06:42:24;26.00;;;22.83;;
15665;SDS011;20725;51.196;3.510;2024-01-07T06:44:53;28.80;;;23.73;;
15665;SDS011;20725;51.196;3.510;2024-01-07T06:47:20;24.23;;;21.63;;
15665;SDS011;20725;51.196;3.510;2024-01-07T06:49:48;27.30;;;23.37;;
15665;SDS011;20725;51.196;3.510;2024-01-07T06:52:15;26.20;;;23.23;;
15665;SDS011;20725;51.196;3.510;2024-01-07T06:54:44;27.00;;;22.97;;
15665;SDS011;20725;51.196;3.510;2024-01-07T06:57:11;23.40;;;20.90;;
15665;SDS011;20725;51.196;3.510;2024-01-07T06:59:39;23.00;;;20.60;;
15665;SDS011;20725;51.196;3.510;2024-01-07T07:02:07;23.27;;;20.50;;
15665;SDS011;20725;51.196;3.510;2024-01-07T07:04:34;23.30;;;20.80;;
15665;SDS011;20725;51.196;3.510;2024-01-07T07:07:02;22.90;;;20.47;;
15665;SDS011;20725;51.196;3.510;2024-01-07T07:09:29;22.47;;;20.03;;
15665;SDS011;20725;51.196;3.510;2024-01-07T07:11:56;24.20;;;20.67;;
15665;SDS011;20725;51.196;3.510;2024-01-07T07:14:24;25.23;;;20.97;;
15665;SDS011;20725;51.196;3.510;2024-01-07T07:16:51;23.97;;;19.97;;
15665;SDS011;20725;51.196;3.510;2024-01-07T07:19:20;23.33;;;20.87;;
15665;SDS011;20725;51.196;3.510;2024-01-07T07:21:47;23.43;;;19.70;;
15665;SDS011;20725;51.196;3.510;2024-01-07T07:24:14;24.43;;;20.53;;
15665;SDS011;20725;51.196;3.510;2024-01-07T07:26:41;23.70;;;21.17;;
15665;SDS011;20725;51.196;3.510;2024-01-07T07:29:09;22.80;;;20.03;;
15665;SDS011;20725;51.196;3.510;2024-01-07T07:31:36;22.40;;;19.93;;
15665;SDS011;20725;51.196;3.510;2024-01-07T07:34:04;24.23;;;19.23;;
15665;SDS011;20725;51.196;3.510;2024-01-07T07:36:33;22.07;;;19.73;;
15665;SDS011;20725;51.196;3.510;2024-01-07T07:39:01;23.03;;;19.70;;
15665;SDS011;20725;51.196;3.510;2024-01-07T07:41:28;23.57;;;20.40;;
15665;SDS011;20725;51.196;3.510;2024-01-07T07:43:55;24.37;;;20.23;;
15665;SDS011;20725;51.196;3.510;2024-01-07T07:46:23;23.97;;;20.23;;
15665;SDS011;20725;51.196;3.510;2024-01-07T07:48:50;22.13;;;19.73;;
15665;SDS011;20725;51.196;3.510;2024-01-07T07:51:17;22.53;;;19.37;;
15665;SDS011;20725;51.196;3.510;2024-01-07T07:53:46;22.40;;;19.17;;
15665;SDS011;20725;51.196;3.510;2024-01-07T07:56:14;23.00;;;20.33;;
15665;SDS011;20725;51.196;3.510;2024-01-07T07:58:41;24.37;;;19.60;;
15665;SDS011;20725;51.196;3.510;2024-01-07T08:01:09;23.77;;;19.60;;
15665;SDS011;20725;51.196;3.510;2024-01-07T08:03:36;25.10;;;20.20;;
15665;SDS011;20725;51.196;3.510;2024-01-07T08:06:03;25.77;;;20.37;;
15665;SDS011;20725;51.196;3.510;2024-01-07T08:08:31;23.37;;;20.07;;
15665;SDS011;20725;51.196;3.510;2024-01-07T08:11:00;23.43;;;19.57;;
15665;SDS011;20725;51.196;3.510;2024-01-07T08:13:27;22.90;;;19.23;;
15665;SDS011;20725;51.196;3.510;2024-01-07T08:15:54;23.50;;;20.47;;
15665;SDS011;20725;51.196;3.510;2024-01-07T08:18:22;25.73;;;20.23;;
15665;SDS011;20725;51.196;3.510;2024-01-07T08:20:49;24.00;;;20.13;;
15665;SDS011;20725;51.196;3.510;2024-01-07T08:23:17;24.23;;;20.83;;
15665;SDS011;20725;51.196;3.510;2024-01-07T08:25:44;23.47;;;18.83;;
15665;SDS011;20725;51.196;3.510;2024-01-07T08:28:13;25.70;;;20.80;;
15665;SDS011;20725;51.196;3.510;2024-01-07T08:30:40;24.47;;;19.93;;
15665;SDS011;20725;51.196;3.510;2024-01-07T08:33:08;25.07;;;21.07;;
15665;SDS011;20725;51.196;3.510;2024-01-07T08:35:35;26.93;;;21.93;;
15665;SDS011;20725;51.196;3.510;2024-01-07T08:38:03;30.70;;;22.67;;
15665;SDS011;20725;51.196;3.510;2024-01-07T08:40:30;31.27;;;22.40;;
15665;SDS011;20725;51.196;3.510;2024-01-07T08:42:57;27.20;;;21.03;;
15665;SDS011;20725;51.196;3.510;2024-01-07T08:45:26;29.53;;;22.23;;
15665;SDS011;20725;51.196;3.510;2024-01-07T08:47:54;27.57;;;22.30;;
15665;SDS011;20725;51.196;3.510;2024-01-07T08:50:21;27.90;;;21.30;;
15665;SDS011;20725;51.196;3.510;2024-01-07T08:52:48;29.90;;;22.30;;
15665;SDS011;20725;51.196;3.510;2024-01-07T08:55:15;26.93;;;20.83;;
15665;SDS011;20725;51.196;3.510;2024-01-07T08:57:43;25.37;;;18.90;;
15665;SDS011;20725;51.196;3.510;2024-01-07T09:00:14;24.43;;;19.53;;
15665;SDS011;20725;51.196;3.510;2024-01-07T09:02:43;25.33;;;19.47;;
15665;SDS011;20725;51.196;3.510;2024-01-07T09:05:10;21.93;;;19.13;;
15665;SDS011;20725;51.196;3.510;2024-01-07T09:07:38;22.03;;;18.07;;
15665;SDS011;20725;51.196;3.510;2024-01-07T09:10:06;22.70;;;18.63;;
15665;SDS011;20725;51.196;3.510;2024-01-07T09:12:36;23.93;;;18.07;;
15665;SDS011;20725;51.196;3.510;2024-01-07T09:15:04;22.30;;;18.03;;
15665;SDS011;20725;51.196;3.510;2024-01-07T09:17:39;22.93;;;19.27;;
15665;SDS011;20725;51.196;3.510;2024-01-07T09:20:09;23.80;;;18.87;;
15665;SDS011;20725;51.196;3.510;2024-01-07T09:22:37;23.17;;;18.70;;
15665;SDS011;20725;51.196;3.510;2024-01-07T09:25:05;24.80;;;19.57;;
15665;SDS011;20725;51.196;3.510;2024-01-07T09:27:33;26.00;;;20.03;;
15665;SDS011;20725;51.196;3.510;2024-01-07T09:30:00;26.07;;;19.73;;
15665;SDS011;20725;51.196;3.510;2024-01-07T09:32:28;25.20;;;20.00;;
15665;SDS011;20725;51.196;3.510;2024-01-07T09:34:56;26.63;;;20.37;;
15665;SDS011;20725;51.196;3.510;2024-01-07T09:37:25;27.47;;;22.10;;
15665;SDS011;20725;51.196;3.510;2024-01-07T09:39:53;25.47;;;21.43;;
15665;SDS011;20725;51.196;3.510;2024-01-07T09:42:20;26.83;;;20.53;;
15665;SDS011;20725;51.196;3.510;2024-01-07T09:44:47;26.20;;;20.73;;
15665;SDS011;20725;51.196;3.510;2024-01-07T09:47:16;26.07;;;20.80;;
15665;SDS011;20725;51.196;3.510;2024-01-07T09:49:45;25.47;;;19.70;;
15665;SDS011;20725;51.196;3.510;2024-01-07T09:52:13;24.90;;;21.57;;
15665;SDS011;20725;51.196;3.510;2024-01-07T09:54:44;22.37;;;19.97;;
15665;SDS011;20725;51.196;3.510;2024-01-07T09:57:13;24.53;;;20.47;;
15665;SDS011;20725;51.196;3.510;2024-01-07T09:59:40;24.40;;;19.73;;
15665;SDS011;20725;51.196;3.510;2024-01-07T10:02:06;22.90;;;19.40;;
15665;SDS011;20725;51.196;3.510;2024-01-07T10:04:34;21.43;;;18.23;;
15665;SDS011;20725;51.196;3.510;2024-01-07T10:07:02;23.40;;;20.07;;
15665;SDS011;20725;51.196;3.510;2024-01-07T10:09:30;25.53;;;20.23;;
15665;SDS011;20725;51.196;3.510;2024-01-07T10:11:59;23.30;;;20.90;;
15665;SDS011;20725;51.196;3.510;2024-01-07T10:14:27;23.53;;;21.00;;
15665;SDS011;20725;51.196;3.510;2024-01-07T10:16:54;22.67;;;20.00;;
15665;SDS011;20725;51.196;3.510;2024-01-07T10:19:23;27.03;;;20.47;;
15665;SDS011;20725;51.196;3.510;2024-01-07T10:22:00;22.77;;;19.47;;
15665;SDS011;20725;51.196;3.510;2024-01-07T10:24:31;25.00;;;20.90;;
15665;SDS011;20725;51.196;3.510;2024-01-07T10:27:05;27.60;;;20.80;;
15665;SDS011;20725;51.196;3.510;2024-01-07T10:29:33;24.43;;;20.40;;
15665;SDS011;20725;51.196;3.510;2024-01-07T10:32:01;26.80;;;21.53;;
15665;SDS011;20725;51.196;3.510;2024-01-07T10:34:30;25.03;;;21.70;;
15665;SDS011;20725;51.196;3.510;2024-01-07T10:36:58;23.67;;;21.17;;
15665;SDS011;20725;51.196;3.510;2024-01-07T10:39:26;25.40;;;20.60;;
15665;SDS011;20725;51.196;3.510;2024-01-07T10:41:54;26.07;;;20.67;;
15665;SDS011;20725;51.196;3.510;2024-01-07T10:44:25;32.23;;;23.80;;
15665;SDS011;20725;51.196;3.510;2024-01-07T10:46:52;27.07;;;22.40;;
15665;SDS011;20725;51.196;3.510;2024-01-07T10:49:20;26.70;;;22.83;;
15665;SDS011;20725;51.196;3.510;2024-01-07T10:51:50;28.10;;;21.60;;
15665;SDS011;20725;51.196;3.510;2024-01-07T10:54:18;26.90;;;22.33;;
15665;SDS011;20725;51.196;3.510;2024-01-07T10:56:48;26.77;;;21.80;;
15665;SDS011;20725;51.196;3.510;2024-01-07T10:59:15;27.37;;;22.03;;
15665;SDS011;20725;51.196;3.510;2024-01-07T11:01:44;25.87;;;21.60;;
15665;SDS011;20725;51.196;3.510;2024-01-07T11:04:14;27.47;;;22.30;;
15665;SDS011;20725;51.196;3.510;2024-01-07T11:06:46;26.23;;;21.83;;
15665;SDS011;20725;51.196;3.510;2024-01-07T11:09:17;24.53;;;20.90;;
15665;SDS011;20725;51.196;3.510;2024-01-07T11:11:49;26.13;;;22.53;;
15665;SDS011;20725;51.196;3.510;2024-01-07T11:14:35;25.60;;;21.37;;
15665;SDS011;20725;51.196;3.510;2024-01-07T11:17:06;24.73;;;19.90;;
15665;SDS011;20725;51.196;3.510;2024-01-07T11:19:34;24.30;;;20.60;;
15665;SDS011;20725;51.196;3.510;2024-01-07T11:22:21;26.60;;;20.97;;
15665;SDS011;20725;51.196;3.510;2024-01-07T11:24:51;25.63;;;20.93;;
15665;SDS011;20725;51.196;3.510;2024-01-07T11:27:20;27.30;;;21.10;;
15665;SDS011;20725;51.196;3.510;2024-01-07T11:29:52;28.77;;;21.03;;
15665;SDS011;20725;51.196;3.510;2024-01-07T11:32:23;25.73;;;20.40;;
15665;SDS011;20725;51.196;3.510;2024-01-07T11:35:10;25.50;;;20.53;;
15665;SDS011;20725;51.196;3.510;2024-01-07T11:38:24;25.03;;;19.80;;
15665;SDS011;20725;51.196;3.510;2024-01-07T11:53:58;25.07;;;20.87;;
15665;SDS011;20725;51.196;3.510;2024-01-07T11:56:25;23.70;;;19.93;;
15665;SDS011;20725;51.196;3.510;2024-01-07T11:58:53;25.00;;;20.33;;
15665;SDS011;20725;51.196;3.510;2024-01-07T12:01:21;22.17;;;19.77;;
15665;SDS011;20725;51.196;3.510;2024-01-07T12:03:50;24.17;;;19.70;;
15665;SDS011;20725;51.196;3.510;2024-01-07T12:06:18;24.77;;;20.87;;
15665;SDS011;20725;51.196;3.510;2024-01-07T12:08:46;24.00;;;20.47;;
15665;SDS011;20725;51.196;3.510;2024-01-07T12:11:15;24.90;;;20.10;;
15665;SDS011;20725;51.196;3.510;2024-01-07T12:13:42;25.43;;;19.90;;
15665;SDS011;20725;51.196;3.510;2024-01-07T12:16:10;23.03;;;20.33;;
15665;SDS011;20725;51.196;3.510;2024-01-07T12:18:38;25.47;;;21.70;;
15665;SDS011;20725;51.196;3.510;2024-01-07T12:21:05;22.80;;;19.53;;
15665;SDS011;20725;51.196;3.510;2024-01-07T12:23:34;22.40;;;20.00;;
15665;SDS011;20725;51.196;3.510;2024-01-07T12:26:07;22.47;;;20.03;;
15665;SDS011;20725;51.196;3.510;2024-01-07T12:28:36;27.00;;;21.43;;
15665;SDS011;20725;51.196;3.510;2024-01-07T12:31:04;25.60;;;19.93;;
15665;SDS011;20725;51.196;3.510;2024-01-07T12:33:32;26.50;;;20.53;;
15665;SDS011;20725;51.196;3.510;2024-01-07T12:35:59;24.47;;;21.23;;
15665;SDS011;20725;51.196;3.510;2024-01-07T12:38:27;22.60;;;20.20;;
15665;SDS011;20725;51.196;3.510;2024-01-07T12:40:54;23.37;;;20.77;;
15665;SDS011;20725;51.196;3.510;2024-01-07T12:43:22;22.17;;;19.80;;
15665;SDS011;20725;51.196;3.510;2024-01-07T12:45:51;24.20;;;21.63;;
15665;SDS011;20725;51.196;3.510;2024-01-07T12:48:20;28.17;;;20.67;;
15665;SDS011;20725;51.196;3.510;2024-01-07T12:50:47;25.17;;;20.20;;
15665;SDS011;20725;51.196;3.510;2024-01-07T12:58:51;26.83;;;20.97;;
15665;SDS011;20725;51.196;3.510;2024-01-07T13:01:20;24.27;;;21.30;;
15665;SDS011;20725;51.196;3.510;2024-01-07T13:03:47;28.60;;;20.40;;
15665;SDS011;20725;51.196;3.510;2024-01-07T13:06:15;22.17;;;19.80;;
15665;SDS011;20725;51.196;3.510;2024-01-07T13:08:42;24.33;;;20.07;;
15665;SDS011;20725;51.196;3.510;2024-01-07T13:11:10;22.80;;;20.17;;
15665;SDS011;20725;51.196;3.510;2024-01-07T13:13:40;24.43;;;20.77;;
15665;SDS011;20725;51.196;3.510;2024-01-07T13:16:07;24.10;;;20.17;;
15665;SDS011;20725;51.196;3.510;2024-01-07T13:18:37;24.93;;;21.73;;
15665;SDS011;20725;51.196;3.510;2024-01-07T13:21:05;21.17;;;19.07;;
15665;SDS011;20725;51.196;3.510;2024-01-07T13:23:32;20.00;;;18.00;;
15665;SDS011;20725;51.196;3.510;2024-01-07T13:26:00;19.20;;;17.33;;
15665;SDS011;20725;51.196;3.510;2024-01-07T13:28:31;17.57;;;15.87;;
15665;SDS011;20725;51.196;3.510;2024-01-07T13:30:58;22.07;;;18.57;;
15665;SDS011;20725;51.196;3.510;2024-01-07T13:33:26;19.37;;;17.57;;
15665;SDS011;20725;51.196;3.510;2024-01-07T13:35:55;20.77;;;18.77;;
15665;SDS011;20725;51.196;3.510;2024-01-07T13:38:22;19.43;;;17.53;;
15665;SDS011;20725;51.196;3.510;2024-01-07T13:40:49;20.27;;;18.17;;
15665;SDS011;20725;51.196;3.510;2024-01-07T13:43:17;19.57;;;17.53;;
15665;SDS011;20725;51.196;3.510;2024-01-07T13:45:44;19.87;;;17.77;;
15665;SDS011;20725;51.196;3.510;2024-01-07T13:48:11;19.27;;;17.47;;
15665;SDS011;20725;51.196;3.510;2024-01-07T13:50:39;20.07;;;18.07;;
15665;SDS011;20725;51.196;3.510;2024-01-07T13:53:07;19.13;;;17.20;;
15665;SDS011;20725;51.196;3.510;2024-01-07T13:55:35;19.40;;;17.53;;
15665;SDS011;20725;51.196;3.510;2024-01-07T13:58:02;20.17;;;18.23;;
15665;SDS011;20725;51.196;3.510;2024-01-07T14:00:30;18.30;;;16.40;;
15665;SDS011;20725;51.196;3.510;2024-01-07T14:02:57;18.13;;;16.43;;
15665;SDS011;20725;51.196;3.510;2024-01-07T14:05:25;19.83;;;17.83;;
15665;SDS011;20725;51.196;3.510;2024-01-07T14:07:52;18.60;;;16.60;;
15665;SDS011;20725;51.196;3.510;2024-01-07T14:10:21;19.27;;;17.33;;
15665;SDS011;20725;51.196;3.510;2024-01-07T14:12:48;20.00;;;17.80;;
15665;SDS011;20725;51.196;3.510;2024-01-07T14:15:24;19.50;;;17.60;;
15665;SDS011;20725;51.196;3.510;2024-01-07T14:17:51;20.43;;;17.40;;
15665;SDS011;20725;51.196;3.510;2024-01-07T14:20:18;20.67;;;18.50;;
15665;SDS011;20725;51.196;3.510;2024-01-07T14:22:46;20.43;;;18.30;;
15665;SDS011;20725;51.196;3.510;2024-01-07T14:25:14;22.17;;;18.40;;
15665;SDS011;20725;51.196;3.510;2024-01-07T14:27:42;23.90;;;19.27;;
15665;SDS011;20725;51.196;3.510;2024-01-07T14:30:10;24.83;;;19.63;;
15665;SDS011;20725;51.196;3.510;2024-01-07T14:32:38;25.50;;;19.10;;
15665;SDS011;20725;51.196;3.510;2024-01-07T14:35:06;22.90;;;19.90;;
15665;SDS011;20725;51.196;3.510;2024-01-07T14:37:33;22.73;;;20.27;;
15665;SDS011;20725;51.196;3.510;2024-01-07T14:40:01;21.23;;;18.53;;
15665;SDS011;20725;51.196;3.510;2024-01-07T14:42:29;21.03;;;18.63;;
15665;SDS011;20725;51.196;3.510;2024-01-07T14:44:58;20.03;;;18.03;;
15665;SDS011;20725;51.196;3.510;2024-01-07T14:47:25;19.73;;;17.60;;